createdAt,value
2019-04-16T00:00:12.206Z,12.40
2019-04-16T00:02:55.157Z,11.40
2019-04-16T00:05:48.503Z,11.63
2019-04-16T00:08:28.203Z,11.50
2019-04-16T00:11:05.960Z,11.10
2019-04-16T00:14:03.402Z,10.90
2019-04-16T00:16:37.823Z,12.03
2019-04-16T00:19:09.508Z,11.83
2019-04-16T00:22:05.051Z,12.27
2019-04-16T00:24:39.551Z,11.67
2019-04-16T00:27:11.183Z,11.57
2019-04-16T00:29:43.500Z,11.40
2019-04-16T00:32:31.167Z,11.57
2019-04-16T00:35:04.069Z,12.00
2019-04-16T00:37:34.555Z,11.43
2019-04-16T00:40:07.130Z,10.97
2019-04-16T00:42:39.614Z,12.27
2019-04-16T00:45:12.638Z,11.50
2019-04-16T00:47:48.048Z,12.07
2019-04-16T00:50:18.655Z,11.70
2019-04-16T00:52:52.429Z,11.70
2019-04-16T00:55:23.236Z,11.63
2019-04-16T00:57:54.561Z,11.93
2019-04-16T01:00:30.613Z,12.60
2019-04-16T01:02:59.733Z,13.37
2019-04-16T01:05:35.055Z,12.67
2019-04-16T01:08:04.911Z,12.80
2019-04-16T01:10:35.747Z,15.17
2019-04-16T01:13:07.596Z,13.70
2019-04-16T01:15:42.733Z,13.10
2019-04-16T01:18:15.646Z,14.30
2019-04-16T01:20:48.706Z,12.47
2019-04-16T01:23:20.743Z,13.37
2019-04-16T01:25:55.586Z,14.97
2019-04-16T01:28:31.981Z,13.23
2019-04-16T01:31:22.071Z,14.03
2019-04-16T01:34:00.782Z,14.30
2019-04-16T01:36:45.709Z,13.53
2019-04-16T01:39:20.011Z,14.83
2019-04-16T01:41:53.499Z,13.50
2019-04-16T01:44:28.747Z,13.83
2019-04-16T01:46:58.114Z,14.53
2019-04-16T01:49:29.896Z,13.53
2019-04-16T01:52:00.905Z,14.60
2019-04-16T01:54:32.769Z,13.23
2019-04-16T01:57:05.973Z,13.13
2019-04-16T01:59:36.893Z,15.57
2019-04-16T02:02:07.950Z,13.90
2019-04-16T02:04:38.863Z,15.27
2019-04-16T02:07:12.015Z,13.90
2019-04-16T02:09:42.977Z,13.67
2019-04-16T02:12:15.009Z,14.80
2019-04-16T02:14:50.357Z,13.77
2019-04-16T02:17:26.724Z,14.30
2019-04-16T02:19:54.046Z,14.60
2019-04-16T02:22:27.062Z,15.07
2019-04-16T02:24:58.039Z,13.30
2019-04-16T02:27:31.136Z,13.83
2019-04-16T02:30:04.719Z,14.20
2019-04-16T02:32:35.067Z,13.73
2019-04-16T02:35:08.037Z,14.77
2019-04-16T02:37:41.431Z,13.20
2019-04-16T02:40:18.491Z,14.73
2019-04-16T02:42:47.145Z,14.33
2019-04-16T02:45:23.038Z,14.23
2019-04-16T02:47:52.202Z,15.23
2019-04-16T02:50:34.435Z,13.60
2019-04-16T02:53:37.970Z,13.80
2019-04-16T02:56:31.891Z,14.17
2019-04-16T02:59:11.892Z,14.90
2019-04-16T03:01:49.372Z,13.80
2019-04-16T03:04:26.657Z,16.47
2019-04-16T03:06:57.305Z,14.90
2019-04-16T03:09:30.461Z,14.60
2019-04-16T03:12:03.048Z,14.30
2019-04-16T03:14:36.348Z,13.10
2019-04-16T03:17:17.789Z,13.63
2019-04-16T03:19:51.282Z,15.07
2019-04-16T03:22:20.823Z,14.00
2019-04-16T03:24:52.349Z,14.07
2019-04-16T03:27:24.395Z,15.60
2019-04-16T03:30:02.985Z,14.33
2019-04-16T03:32:35.337Z,14.63
2019-04-16T03:35:05.668Z,14.67
2019-04-16T03:37:36.368Z,16.07
2019-04-16T03:40:16.590Z,14.60
2019-04-16T03:42:43.370Z,14.90
2019-04-16T03:45:15.916Z,15.13
2019-04-16T03:47:50.851Z,16.13
2019-04-16T03:50:21.073Z,14.90
2019-04-16T03:52:53.399Z,14.17
2019-04-16T03:55:26.261Z,14.70
2019-04-16T03:57:56.480Z,14.33
2019-04-16T04:00:28.439Z,14.17
2019-04-16T04:02:59.556Z,14.70
2019-04-16T04:05:35.106Z,15.23
2019-04-16T04:08:04.524Z,14.57
2019-04-16T04:10:37.115Z,15.50
2019-04-16T04:13:11.077Z,14.47
2019-04-16T04:15:42.646Z,15.10
2019-04-16T04:18:13.476Z,16.43
2019-04-16T04:20:49.663Z,15.47
2019-04-16T04:23:19.114Z,13.73
2019-04-16T04:25:51.559Z,16.00
2019-04-16T04:28:22.192Z,15.30
2019-04-16T04:30:57.735Z,15.97
2019-04-16T04:33:42.642Z,15.60
2019-04-16T04:36:12.863Z,15.43
2019-04-16T04:38:45.658Z,14.97
2019-04-16T04:41:46.329Z,16.93
2019-04-16T04:44:28.474Z,16.23
2019-04-16T04:47:00.266Z,15.73
2019-04-16T04:49:42.762Z,16.63
2019-04-16T04:52:15.231Z,17.10
2019-04-16T04:55:09.922Z,15.90
2019-04-16T04:57:42.790Z,16.13
2019-04-16T05:04:02.355Z,15.70
2019-04-16T05:06:50.574Z,16.70
2019-04-16T05:09:35.639Z,16.93
2019-04-16T05:12:08.080Z,17.90
2019-04-16T05:14:58.681Z,17.97
2019-04-16T05:20:24.145Z,17.20
2019-04-16T05:22:58.002Z,16.87
2019-04-16T05:25:34.469Z,17.37
2019-04-16T05:28:17.313Z,18.30
2019-04-16T05:31:07.180Z,18.00
2019-04-16T05:34:00.618Z,17.13
2019-04-16T05:36:34.454Z,17.63
2019-04-16T05:39:28.283Z,18.47
2019-04-16T05:42:02.003Z,18.33
2019-04-16T05:44:51.803Z,15.60
2019-04-16T05:47:41.618Z,16.40
2019-04-16T05:50:31.504Z,15.13
2019-04-16T05:53:02.105Z,15.80
2019-04-16T05:56:10.813Z,15.47
2019-04-16T05:59:02.713Z,14.60
2019-04-16T06:02:10.987Z,13.80
2019-04-16T06:05:00.806Z,15.30
2019-04-16T06:07:50.593Z,16.20
2019-04-16T06:10:40.486Z,15.77
2019-04-16T06:13:49.166Z,15.10
2019-04-16T06:16:38.416Z,16.53
2019-04-16T06:19:47.521Z,15.00
2019-04-16T06:23:00.656Z,17.43
2019-04-16T06:25:53.296Z,16.70
2019-04-16T06:29:01.983Z,15.43
2019-04-16T06:32:11.842Z,14.40
2019-04-16T06:35:07.668Z,15.03
2019-04-16T06:38:16.299Z,15.17
2019-04-16T06:41:25.001Z,15.50
2019-04-16T06:44:19.457Z,16.37
2019-04-16T06:47:28.404Z,15.50
2019-04-16T06:50:40.593Z,14.87
2019-04-16T06:53:39.006Z,16.37
2019-04-16T06:56:28.403Z,15.80
2019-04-16T06:59:37.374Z,16.57
2019-04-16T07:03:01.322Z,16.20
2019-04-16T07:05:42.855Z,15.70
2019-04-16T07:08:51.915Z,14.63
2019-04-16T07:11:57.784Z,16.57
2019-04-16T07:14:25.863Z,14.90
2019-04-16T07:17:08.675Z,15.00
2019-04-16T07:19:58.484Z,16.07
2019-04-16T07:22:52.741Z,17.33
2019-04-16T07:25:32.310Z,16.57
2019-04-16T07:28:33.532Z,15.80
2019-04-16T07:31:42.291Z,16.83
2019-04-16T07:34:45.173Z,16.63
2019-04-16T07:37:53.872Z,17.17
2019-04-16T07:41:02.566Z,16.50
2019-04-16T07:44:11.415Z,16.80
2019-04-16T07:47:20.792Z,16.17
2019-04-16T07:50:32.235Z,16.43
2019-04-16T07:53:31.429Z,16.97
2019-04-16T07:56:24.022Z,16.33
2019-04-16T07:59:13.812Z,16.53
2019-04-16T08:02:03.631Z,16.57
2019-04-16T08:04:53.625Z,15.27
2019-04-16T08:07:43.490Z,19.70
2019-04-16T08:10:33.347Z,16.90
2019-04-16T08:16:07.639Z,16.63
2019-04-16T08:18:57.452Z,17.10
2019-04-16T08:21:47.348Z,16.53
2019-04-16T08:27:23.880Z,16.60
2019-04-16T08:30:15.024Z,16.03
2019-04-16T08:33:04.810Z,15.83
2019-04-16T08:35:54.613Z,16.27
2019-04-16T08:38:26.116Z,16.17
2019-04-16T08:41:20.309Z,16.80
2019-04-16T08:44:02.930Z,16.10
2019-04-16T08:46:43.537Z,16.73
2019-04-16T08:49:33.379Z,16.17
2019-04-16T08:52:23.189Z,15.20
2019-04-16T08:55:13.017Z,16.40
2019-04-16T08:58:05.869Z,16.17
2019-04-16T09:03:30.963Z,17.00
2019-04-16T09:06:20.753Z,16.37
2019-04-16T09:09:29.456Z,16.60
2019-04-16T09:12:19.290Z,16.10
2019-04-16T09:18:32.069Z,17.00
2019-04-16T09:21:02.557Z,15.93
2019-04-16T09:24:11.338Z,16.37
2019-04-16T09:30:00.398Z,16.40
2019-04-16T09:33:09.116Z,15.80
2019-04-16T09:36:17.863Z,15.07
2019-04-16T09:39:25.472Z,16.07
2019-04-16T09:42:15.319Z,14.20
2019-04-16T09:45:05.812Z,14.60
2019-04-16T09:47:55.692Z,14.30
2019-04-16T09:50:47.886Z,15.53
2019-04-16T09:53:34.025Z,14.30
2019-04-16T09:56:30.781Z,14.70
2019-04-16T09:59:39.495Z,14.30
2019-04-16T10:05:30.152Z,13.80
2019-04-16T10:08:12.612Z,13.93
2019-04-16T10:10:58.090Z,14.93
2019-04-16T10:13:38.546Z,15.17
2019-04-16T10:19:13.112Z,13.63
2019-04-16T10:22:02.874Z,14.60
2019-04-16T10:25:11.582Z,15.27
2019-04-16T10:28:08.362Z,13.47
2019-04-16T10:30:58.335Z,14.90
2019-04-16T10:33:48.131Z,15.77
2019-04-16T10:36:18.585Z,15.60
2019-04-16T10:39:27.342Z,15.50
2019-04-16T10:42:25.587Z,16.60
2019-04-16T10:45:34.190Z,15.23
2019-04-16T10:48:23.483Z,14.07
2019-04-16T10:51:32.172Z,14.60
2019-04-16T10:54:38.135Z,15.10
2019-04-16T10:57:30.292Z,15.10
2019-04-16T11:03:41.149Z,15.17
2019-04-16T11:06:49.791Z,16.63
2019-04-16T11:09:39.898Z,15.60
2019-04-16T11:12:29.846Z,14.60
2019-04-16T11:15:22.117Z,15.10
2019-04-16T11:18:11.910Z,15.77
2019-04-16T11:21:01.711Z,13.77
2019-04-16T11:23:51.599Z,14.63
2019-04-16T11:26:22.067Z,13.43
2019-04-16T11:29:12.153Z,16.17
2019-04-16T11:31:54.810Z,15.50
2019-04-16T11:34:44.568Z,14.40
2019-04-16T11:37:36.211Z,14.73
2019-04-16T11:40:17.462Z,15.37
2019-04-16T11:43:07.328Z,14.60
2019-04-16T11:45:57.091Z,15.57
2019-04-16T11:48:50.068Z,15.97
2019-04-16T11:51:38.492Z,13.73
2019-04-16T11:54:28.443Z,14.63
2019-04-16T11:57:18.280Z,14.27
2019-04-16T12:02:58.586Z,15.73
2019-04-16T12:06:07.289Z,15.93
2019-04-16T12:09:16.117Z,14.47
2019-04-16T12:12:13.068Z,14.80
2019-04-16T12:15:21.734Z,15.07
2019-04-16T12:18:11.061Z,16.13
2019-04-16T12:21:19.730Z,15.33
2019-04-16T12:24:28.419Z,14.97
2019-04-16T12:27:37.065Z,17.20
2019-04-16T12:30:45.762Z,16.40
2019-04-16T12:33:54.496Z,16.13
2019-04-16T12:36:55.696Z,15.37
2019-04-16T12:40:04.424Z,15.33
2019-04-16T12:43:06.211Z,16.10
2019-04-16T12:46:14.921Z,14.03
2019-04-16T12:49:23.561Z,15.97
2019-04-16T12:52:32.209Z,15.10
2019-04-16T12:55:32.481Z,16.10
2019-04-16T12:58:34.435Z,15.90
2019-04-16T13:01:43.204Z,15.40
2019-04-16T13:04:51.904Z,15.63
2019-04-16T13:07:41.205Z,15.40
2019-04-16T13:10:41.161Z,16.10
2019-04-16T13:13:49.811Z,15.70
2019-04-16T13:16:58.479Z,16.53
2019-04-16T13:20:07.152Z,15.17
2019-04-16T13:22:58.290Z,14.73
2019-04-16T13:25:57.359Z,15.70
2019-04-16T13:28:47.229Z,14.87
2019-04-16T13:31:38.963Z,14.83
2019-04-16T13:34:20.429Z,14.80
2019-04-16T13:37:10.249Z,16.40
2019-04-16T13:42:48.170Z,15.60
2019-04-16T13:48:42.386Z,15.80
2019-04-16T13:51:24.175Z,15.00
2019-04-16T13:54:34.406Z,15.50
2019-04-16T13:57:14.288Z,14.87
2019-04-16T14:00:23.413Z,14.50
2019-04-16T14:03:15.685Z,14.17
2019-04-16T14:06:09.323Z,15.27
2019-04-16T14:08:48.373Z,14.20
2019-04-16T14:11:38.301Z,14.40
2019-04-16T14:14:28.095Z,14.83
2019-04-16T14:20:56.185Z,13.70
2019-04-16T14:23:48.753Z,14.10
2019-04-16T14:26:38.604Z,14.50
2019-04-16T14:29:28.384Z,14.67
2019-04-16T14:32:18.234Z,14.13
2019-04-16T14:35:07.623Z,12.50
2019-04-16T14:37:57.844Z,13.40
2019-04-16T14:40:35.088Z,13.53
2019-04-16T14:46:28.405Z,13.07
2019-04-16T14:49:09.502Z,12.80
2019-04-16T14:52:02.242Z,13.03
2019-04-16T14:55:09.723Z,12.53
2019-04-16T14:58:18.443Z,12.10
2019-04-16T15:01:07.696Z,12.30
2019-04-16T15:04:16.402Z,11.77
2019-04-16T15:06:58.150Z,11.77
2019-04-16T15:10:07.060Z,13.10
2019-04-16T15:13:15.708Z,13.20
2019-04-16T15:16:24.401Z,13.77
2019-04-16T15:19:33.075Z,12.33
2019-04-16T15:22:41.878Z,12.90
2019-04-16T15:25:44.150Z,13.73
2019-04-16T15:28:52.869Z,12.93
2019-04-16T15:32:05.432Z,11.57
2019-04-16T15:34:46.112Z,12.47
2019-04-16T15:37:44.912Z,13.00
2019-04-16T15:40:40.133Z,13.17
2019-04-16T15:43:23.332Z,13.43
2019-04-16T15:46:35.109Z,13.40
2019-04-16T15:49:29.011Z,13.80
2019-04-16T15:52:36.758Z,14.67
2019-04-16T15:55:33.131Z,13.10
2019-04-16T15:58:41.805Z,12.30
2019-04-16T16:01:50.505Z,14.20
2019-04-16T16:04:59.237Z,13.30
2019-04-16T16:08:08.030Z,13.10
2019-04-16T16:11:00.380Z,13.63
2019-04-16T16:13:50.274Z,13.13
2019-04-16T16:16:42.006Z,12.37
2019-04-16T16:19:23.264Z,11.70
2019-04-16T16:22:13.128Z,13.40
2019-04-16T16:25:05.873Z,13.13
2019-04-16T16:27:43.905Z,13.87
2019-04-16T16:30:24.035Z,13.90
2019-04-16T16:33:13.870Z,13.27
2019-04-16T16:35:57.071Z,13.57
2019-04-16T16:38:27.242Z,14.50
2019-04-16T16:41:17.035Z,13.63
2019-04-16T16:44:07.225Z,12.80
2019-04-16T16:47:15.956Z,13.50
2019-04-16T16:49:48.090Z,13.63
2019-04-16T16:52:56.769Z,13.30
2019-04-16T16:56:05.678Z,12.20
2019-04-16T16:59:14.301Z,12.43
2019-04-16T17:02:23.011Z,12.70
2019-04-16T17:08:01.700Z,14.10
2019-04-16T17:10:51.516Z,14.70
2019-04-16T17:13:41.344Z,15.73
2019-04-16T17:16:31.153Z,13.80
2019-04-16T17:19:20.983Z,14.33
2019-04-16T17:22:10.758Z,15.10
2019-04-16T17:25:00.633Z,14.53
2019-04-16T17:27:51.827Z,13.73
2019-04-16T17:30:33.389Z,13.97
2019-04-16T17:33:23.181Z,14.93
2019-04-16T17:36:13.110Z,15.83
2019-04-16T17:38:43.656Z,15.93
2019-04-16T17:41:37.542Z,15.20
2019-04-16T17:44:46.300Z,15.60
2019-04-16T17:47:57.223Z,15.40
2019-04-16T17:50:51.749Z,15.07
2019-04-16T17:53:41.329Z,15.43
2019-04-16T17:56:51.947Z,15.60
2019-04-16T18:02:35.243Z,15.20
2019-04-16T18:05:44.063Z,16.23
2019-04-16T18:08:52.735Z,15.93
2019-04-16T18:11:44.789Z,14.43
2019-04-16T18:14:40.763Z,15.10
2019-04-16T18:17:49.462Z,14.60
2019-04-16T18:20:56.822Z,16.57
2019-04-16T18:23:45.613Z,16.17
2019-04-16T18:26:55.160Z,16.27
2019-04-16T18:30:06.202Z,16.63
2019-04-16T18:33:05.577Z,16.30
2019-04-16T18:36:01.034Z,15.53
2019-04-16T18:41:47.168Z,16.27
2019-04-16T18:44:56.322Z,15.57
2019-04-16T18:47:42.905Z,17.70
2019-04-16T18:50:32.723Z,15.43
2019-04-16T18:53:22.574Z,16.43
2019-04-16T18:56:12.513Z,17.87
2019-04-16T18:58:42.934Z,16.80
2019-04-16T19:04:16.528Z,18.90
2019-04-16T19:06:47.165Z,16.73
2019-04-16T19:09:37.061Z,17.90
2019-04-16T19:12:26.963Z,19.50
2019-04-16T19:15:16.809Z,19.20
2019-04-16T19:18:18.950Z,22.17
2019-04-16T19:20:51.825Z,20.13
2019-04-16T19:23:33.615Z,21.43
2019-04-16T19:26:23.455Z,21.23
2019-04-16T19:29:14.549Z,22.00
2019-04-16T19:31:54.959Z,21.27
2019-04-16T19:34:34.502Z,22.27
2019-04-16T19:37:24.305Z,21.13
2019-04-16T19:40:15.598Z,20.17
2019-04-16T19:43:02.605Z,19.80
2019-04-16T19:45:35.392Z,19.03
2019-04-16T19:48:35.321Z,17.50
2019-04-16T19:51:19.608Z,17.40
2019-04-16T19:54:00.249Z,17.33
2019-04-16T19:56:51.392Z,16.90
2019-04-16T19:59:33.313Z,17.23
2019-04-16T20:02:23.143Z,16.63
2019-04-16T20:04:54.147Z,17.23
2019-04-16T20:07:37.202Z,17.77
2019-04-16T20:10:27.013Z,15.77
2019-04-16T20:13:16.861Z,17.53
2019-04-16T20:15:47.358Z,17.17
2019-04-16T20:18:50.164Z,18.20
2019-04-16T20:21:20.147Z,16.97
2019-04-16T20:23:56.281Z,17.30
2019-04-16T20:26:46.092Z,17.60
2019-04-16T20:29:35.999Z,16.53
2019-04-16T20:35:11.704Z,18.13
2019-04-16T20:38:01.546Z,16.40
2019-04-16T20:40:51.364Z,15.50
2019-04-16T20:43:41.200Z,14.43
2019-04-16T20:46:31.040Z,13.30
2019-04-16T20:49:20.902Z,14.70
2019-04-16T20:52:10.811Z,14.10
2019-04-16T20:57:27.725Z,13.97
2019-04-16T21:03:04.781Z,13.53
2019-04-16T21:05:57.805Z,13.70
2019-04-16T21:08:49.470Z,14.20
2019-04-16T21:11:41.017Z,13.13
2019-04-16T21:17:13.798Z,13.87
2019-04-16T21:20:04.041Z,13.97
2019-04-16T21:22:57.628Z,13.43
2019-04-16T21:25:37.495Z,13.30
2019-04-16T21:28:31.947Z,14.30
2019-04-16T21:31:21.557Z,13.50
2019-04-16T21:34:30.234Z,12.50
2019-04-16T21:40:25.985Z,15.00
2019-04-16T21:43:27.852Z,13.00
2019-04-16T21:45:59.115Z,14.10
2019-04-16T21:48:50.661Z,13.83
2019-04-16T21:52:01.608Z,14.03
2019-04-16T21:54:51.409Z,12.97
2019-04-16T21:57:42.876Z,14.03
2019-04-16T22:00:51.614Z,13.90
2019-04-16T22:03:42.916Z,13.43
2019-04-16T22:09:25.403Z,13.63
2019-04-16T22:12:16.188Z,15.10
2019-04-16T22:14:58.643Z,14.37
2019-04-16T22:17:48.435Z,15.10
2019-04-16T22:20:38.260Z,14.77
2019-04-16T22:23:28.619Z,15.00
2019-04-16T22:26:18.498Z,13.30
2019-04-16T22:29:08.270Z,14.07
2019-04-16T22:32:11.169Z,14.60
2019-04-16T22:34:40.448Z,13.20
2019-04-16T22:37:30.277Z,13.73
2019-04-16T22:40:38.902Z,12.50
2019-04-16T22:43:47.603Z,14.30
2019-04-16T22:46:40.452Z,13.70
2019-04-16T22:49:40.948Z,13.20
2019-04-16T22:53:02.714Z,12.33
2019-04-16T22:55:56.387Z,11.83
2019-04-16T22:58:48.928Z,11.07
2019-04-16T23:07:44.563Z,10.33
2019-04-16T23:10:17.832Z,10.93
2019-04-16T23:13:00.366Z,10.70
2019-04-16T23:15:32.650Z,10.40
2019-04-16T23:18:22.458Z,10.70
2019-04-16T23:21:12.224Z,10.87
2019-04-16T23:24:02.050Z,11.20
2019-04-16T23:26:33.292Z,9.53
2019-04-16T23:29:12.543Z,10.53
2019-04-16T23:31:56.028Z,9.67
2019-04-16T23:34:37.996Z,8.87
2019-04-16T23:37:14.989Z,10.20
2019-04-16T23:40:07.472Z,9.17
2019-04-16T23:43:15.377Z,8.80
2019-04-16T23:46:24.094Z,9.50
2019-04-16T23:49:32.792Z,8.33
2019-04-16T23:52:26.742Z,8.90
2019-04-16T23:55:35.422Z,9.83
2019-04-16T23:58:44.088Z,9.23
